sensor_id;sensor_type;location;lat;lon;timestamp;P1;durP1;ratioP1;P2;durP2;ratioP2
14408;SDS011;7289;50.706;4.992;2022-12-18T00:02:00;0.50;;;0.50;;
14408;SDS011;7289;50.706;4.992;2022-12-18T00:04:30;0.60;;;0.60;;
14408;SDS011;7289;50.706;4.992;2022-12-18T00:06:58;0.60;;;0.60;;
14408;SDS011;7289;50.706;4.992;2022-12-18T00:09:27;0.60;;;0.60;;
14408;SDS011;7289;50.706;4.992;2022-12-18T00:12:06;0.63;;;0.63;;
14408;SDS011;7289;50.706;4.992;2022-12-18T00:14:41;0.60;;;0.60;;
14408;SDS011;7289;50.706;4.992;2022-12-18T00:17:09;0.60;;;0.60;;
14408;SDS011;7289;50.706;4.992;2022-12-18T00:19:37;0.60;;;0.60;;
14408;SDS011;7289;50.706;4.992;2022-12-18T00:22:05;0.50;;;0.50;;
14408;SDS011;7289;50.706;4.992;2022-12-18T00:24:34;0.50;;;0.50;;
14408;SDS011;7289;50.706;4.992;2022-12-18T00:27:02;0.70;;;0.70;;
14408;SDS011;7289;50.706;4.992;2022-12-18T00:29:31;0.70;;;0.70;;
14408;SDS011;7289;50.706;4.992;2022-12-18T00:32:00;0.60;;;0.60;;
14408;SDS011;7289;50.706;4.992;2022-12-18T00:34:28;0.60;;;0.60;;
14408;SDS011;7289;50.706;4.992;2022-12-18T00:36:57;0.70;;;0.70;;
14408;SDS011;7289;50.706;4.992;2022-12-18T00:39:25;0.57;;;0.57;;
14408;SDS011;7289;50.706;4.992;2022-12-18T00:41:53;0.60;;;0.60;;
14408;SDS011;7289;50.706;4.992;2022-12-18T00:44:40;0.60;;;0.60;;
14408;SDS011;7289;50.706;4.992;2022-12-18T00:47:09;0.60;;;0.60;;
14408;SDS011;7289;50.706;4.992;2022-12-18T00:49:37;0.60;;;0.60;;
14408;SDS011;7289;50.706;4.992;2022-12-18T00:52:05;0.90;;;0.90;;
14408;SDS011;7289;50.706;4.992;2022-12-18T00:54:33;0.60;;;0.60;;
14408;SDS011;7289;50.706;4.992;2022-12-18T00:57:01;0.60;;;0.60;;
14408;SDS011;7289;50.706;4.992;2022-12-18T00:59:30;0.60;;;0.60;;
14408;SDS011;7289;50.706;4.992;2022-12-18T01:01:59;0.50;;;0.50;;
14408;SDS011;7289;50.706;4.992;2022-12-18T01:04:28;0.60;;;0.60;;
14408;SDS011;7289;50.706;4.992;2022-12-18T01:06:59;0.60;;;0.60;;
14408;SDS011;7289;50.706;4.992;2022-12-18T01:09:27;0.53;;;0.53;;
14408;SDS011;7289;50.706;4.992;2022-12-18T01:11:56;0.63;;;0.63;;
14408;SDS011;7289;50.706;4.992;2022-12-18T01:14:24;0.60;;;0.60;;
14408;SDS011;7289;50.706;4.992;2022-12-18T01:16:52;0.60;;;0.60;;
14408;SDS011;7289;50.706;4.992;2022-12-18T01:19:22;0.90;;;0.90;;
14408;SDS011;7289;50.706;4.992;2022-12-18T01:21:51;0.70;;;0.70;;
14408;SDS011;7289;50.706;4.992;2022-12-18T01:24:19;0.60;;;0.60;;
14408;SDS011;7289;50.706;4.992;2022-12-18T01:26:48;0.60;;;0.60;;
14408;SDS011;7289;50.706;4.992;2022-12-18T01:29:16;0.60;;;0.60;;
14408;SDS011;7289;50.706;4.992;2022-12-18T01:31:44;0.70;;;0.70;;
14408;SDS011;7289;50.706;4.992;2022-12-18T01:34:13;0.60;;;0.60;;
14408;SDS011;7289;50.706;4.992;2022-12-18T01:36:42;0.90;;;0.90;;
14408;SDS011;7289;50.706;4.992;2022-12-18T01:39:11;0.80;;;0.80;;
14408;SDS011;7289;50.706;4.992;2022-12-18T01:41:41;0.70;;;0.70;;
14408;SDS011;7289;50.706;4.992;2022-12-18T01:47:33;0.70;;;0.70;;
14408;SDS011;7289;50.706;4.992;2022-12-18T01:50:07;0.60;;;0.60;;
14408;SDS011;7289;50.706;4.992;2022-12-18T01:52:38;0.60;;;0.60;;
14408;SDS011;7289;50.706;4.992;2022-12-18T01:55:11;0.67;;;0.67;;
14408;SDS011;7289;50.706;4.992;2022-12-18T01:57:41;0.60;;;0.60;;
14408;SDS011;7289;50.706;4.992;2022-12-18T02:00:12;0.70;;;0.70;;
14408;SDS011;7289;50.706;4.992;2022-12-18T02:02:43;0.60;;;0.60;;
14408;SDS011;7289;50.706;4.992;2022-12-18T02:05:13;0.70;;;0.70;;
14408;SDS011;7289;50.706;4.992;2022-12-18T02:07:49;0.70;;;0.70;;
14408;SDS011;7289;50.706;4.992;2022-12-18T02:10:31;0.60;;;0.60;;
14408;SDS011;7289;50.706;4.992;2022-12-18T02:13:04;0.60;;;0.60;;
14408;SDS011;7289;50.706;4.992;2022-12-18T02:15:41;0.60;;;0.60;;
14408;SDS011;7289;50.706;4.992;2022-12-18T02:18:17;0.70;;;0.70;;
14408;SDS011;7289;50.706;4.992;2022-12-18T02:20:50;0.70;;;0.70;;
14408;SDS011;7289;50.706;4.992;2022-12-18T02:23:28;0.70;;;0.70;;
14408;SDS011;7289;50.706;4.992;2022-12-18T02:26:12;0.90;;;0.90;;
14408;SDS011;7289;50.706;4.992;2022-12-18T02:28:46;0.60;;;0.60;;
14408;SDS011;7289;50.706;4.992;2022-12-18T02:31:20;0.70;;;0.70;;
14408;SDS011;7289;50.706;4.992;2022-12-18T02:33:51;0.70;;;0.70;;
14408;SDS011;7289;50.706;4.992;2022-12-18T02:36:22;0.70;;;0.70;;
14408;SDS011;7289;50.706;4.992;2022-12-18T02:38:55;0.70;;;0.70;;
14408;SDS011;7289;50.706;4.992;2022-12-18T02:41:27;0.70;;;0.70;;
14408;SDS011;7289;50.706;4.992;2022-12-18T02:43:58;0.63;;;0.63;;
14408;SDS011;7289;50.706;4.992;2022-12-18T02:46:31;0.60;;;0.60;;
14408;SDS011;7289;50.706;4.992;2022-12-18T02:49:11;0.90;;;0.90;;
14408;SDS011;7289;50.706;4.992;2022-12-18T02:51:49;0.90;;;0.90;;
14408;SDS011;7289;50.706;4.992;2022-12-18T02:57:28;0.90;;;0.90;;
14408;SDS011;7289;50.706;4.992;2022-12-18T03:00:04;0.70;;;0.70;;
14408;SDS011;7289;50.706;4.992;2022-12-18T03:02:38;0.70;;;0.70;;
14408;SDS011;7289;50.706;4.992;2022-12-18T03:05:12;1.00;;;1.00;;
14408;SDS011;7289;50.706;4.992;2022-12-18T03:07:50;0.60;;;0.60;;
14408;SDS011;7289;50.706;4.992;2022-12-18T03:10:27;0.70;;;0.70;;
14408;SDS011;7289;50.706;4.992;2022-12-18T03:13:04;0.70;;;0.70;;
14408;SDS011;7289;50.706;4.992;2022-12-18T03:15:37;0.60;;;0.60;;
14408;SDS011;7289;50.706;4.992;2022-12-18T03:18:12;0.60;;;0.60;;
14408;SDS011;7289;50.706;4.992;2022-12-18T03:20:44;0.70;;;0.70;;
14408;SDS011;7289;50.706;4.992;2022-12-18T03:23:19;0.90;;;0.90;;
14408;SDS011;7289;50.706;4.992;2022-12-18T03:25:52;0.60;;;0.60;;
14408;SDS011;7289;50.706;4.992;2022-12-18T03:28:37;0.60;;;0.60;;
14408;SDS011;7289;50.706;4.992;2022-12-18T03:31:10;0.70;;;0.70;;
14408;SDS011;7289;50.706;4.992;2022-12-18T03:33:41;0.60;;;0.60;;
14408;SDS011;7289;50.706;4.992;2022-12-18T03:36:14;0.60;;;0.60;;
14408;SDS011;7289;50.706;4.992;2022-12-18T03:38:43;1.00;;;1.00;;
14408;SDS011;7289;50.706;4.992;2022-12-18T03:41:14;0.90;;;0.90;;
14408;SDS011;7289;50.706;4.992;2022-12-18T03:44:07;0.70;;;0.70;;
14408;SDS011;7289;50.706;4.992;2022-12-18T03:46:45;0.90;;;0.90;;
14408;SDS011;7289;50.706;4.992;2022-12-18T03:49:23;0.90;;;0.90;;
14408;SDS011;7289;50.706;4.992;2022-12-18T03:51:59;0.77;;;0.77;;
14408;SDS011;7289;50.706;4.992;2022-12-18T03:54:32;0.70;;;0.70;;
14408;SDS011;7289;50.706;4.992;2022-12-18T03:57:09;0.97;;;0.97;;
14408;SDS011;7289;50.706;4.992;2022-12-18T03:59:42;0.90;;;0.90;;
14408;SDS011;7289;50.706;4.992;2022-12-18T04:02:14;0.60;;;0.60;;
14408;SDS011;7289;50.706;4.992;2022-12-18T04:04:45;0.70;;;0.70;;
14408;SDS011;7289;50.706;4.992;2022-12-18T04:07:16;0.80;;;0.80;;
14408;SDS011;7289;50.706;4.992;2022-12-18T04:09:46;0.90;;;0.90;;
14408;SDS011;7289;50.706;4.992;2022-12-18T04:12:17;0.60;;;0.60;;
14408;SDS011;7289;50.706;4.992;2022-12-18T04:14:48;0.60;;;0.60;;
14408;SDS011;7289;50.706;4.992;2022-12-18T04:17:17;1.00;;;1.00;;
14408;SDS011;7289;50.706;4.992;2022-12-18T04:19:46;0.70;;;0.70;;
14408;SDS011;7289;50.706;4.992;2022-12-18T04:22:15;0.60;;;0.60;;
14408;SDS011;7289;50.706;4.992;2022-12-18T04:24:47;0.70;;;0.70;;
14408;SDS011;7289;50.706;4.992;2022-12-18T04:27:24;0.90;;;0.90;;
14408;SDS011;7289;50.706;4.992;2022-12-18T04:29:53;1.00;;;1.00;;
14408;SDS011;7289;50.706;4.992;2022-12-18T04:32:22;0.70;;;0.70;;
14408;SDS011;7289;50.706;4.992;2022-12-18T04:34:50;0.93;;;0.93;;
14408;SDS011;7289;50.706;4.992;2022-12-18T04:37:19;0.67;;;0.67;;
14408;SDS011;7289;50.706;4.992;2022-12-18T04:39:48;1.00;;;1.00;;
14408;SDS011;7289;50.706;4.992;2022-12-18T04:42:24;0.83;;;0.83;;
14408;SDS011;7289;50.706;4.992;2022-12-18T04:44:54;0.80;;;0.80;;
14408;SDS011;7289;50.706;4.992;2022-12-18T04:47:22;0.70;;;0.70;;
14408;SDS011;7289;50.706;4.992;2022-12-18T04:49:50;0.70;;;0.70;;
14408;SDS011;7289;50.706;4.992;2022-12-18T04:52:18;0.90;;;0.90;;
14408;SDS011;7289;50.706;4.992;2022-12-18T04:54:49;0.70;;;0.70;;
14408;SDS011;7289;50.706;4.992;2022-12-18T04:57:17;0.80;;;0.80;;
14408;SDS011;7289;50.706;4.992;2022-12-18T04:59:45;1.00;;;1.00;;
14408;SDS011;7289;50.706;4.992;2022-12-18T05:02:15;0.80;;;0.80;;
14408;SDS011;7289;50.706;4.992;2022-12-18T05:04:43;0.70;;;0.70;;
14408;SDS011;7289;50.706;4.992;2022-12-18T05:07:11;0.70;;;0.70;;
14408;SDS011;7289;50.706;4.992;2022-12-18T05:09:40;0.70;;;0.70;;
14408;SDS011;7289;50.706;4.992;2022-12-18T05:12:08;0.60;;;0.60;;
14408;SDS011;7289;50.706;4.992;2022-12-18T05:14:36;0.70;;;0.70;;
14408;SDS011;7289;50.706;4.992;2022-12-18T05:17:04;0.90;;;0.90;;
14408;SDS011;7289;50.706;4.992;2022-12-18T05:19:34;1.00;;;1.00;;
14408;SDS011;7289;50.706;4.992;2022-12-18T05:22:06;0.70;;;0.70;;
14408;SDS011;7289;50.706;4.992;2022-12-18T05:24:34;0.60;;;0.60;;
14408;SDS011;7289;50.706;4.992;2022-12-18T05:27:02;0.70;;;0.70;;
14408;SDS011;7289;50.706;4.992;2022-12-18T05:29:31;0.90;;;0.90;;
14408;SDS011;7289;50.706;4.992;2022-12-18T05:31:59;0.90;;;0.90;;
14408;SDS011;7289;50.706;4.992;2022-12-18T05:34:27;0.73;;;0.73;;
14408;SDS011;7289;50.706;4.992;2022-12-18T05:36:57;0.93;;;0.93;;
14408;SDS011;7289;50.706;4.992;2022-12-18T05:39:25;1.00;;;1.00;;
14408;SDS011;7289;50.706;4.992;2022-12-18T05:41:53;0.93;;;0.93;;
14408;SDS011;7289;50.706;4.992;2022-12-18T05:44:21;0.70;;;0.70;;
14408;SDS011;7289;50.706;4.992;2022-12-18T05:46:50;0.90;;;0.90;;
14408;SDS011;7289;50.706;4.992;2022-12-18T05:49:18;0.90;;;0.90;;
14408;SDS011;7289;50.706;4.992;2022-12-18T05:51:46;0.70;;;0.70;;
14408;SDS011;7289;50.706;4.992;2022-12-18T05:54:16;0.60;;;0.60;;
14408;SDS011;7289;50.706;4.992;2022-12-18T05:56:44;0.80;;;0.80;;
14408;SDS011;7289;50.706;4.992;2022-12-18T05:59:14;0.60;;;0.60;;
14408;SDS011;7289;50.706;4.992;2022-12-18T06:01:42;0.90;;;0.90;;
14408;SDS011;7289;50.706;4.992;2022-12-18T06:04:11;0.80;;;0.80;;
14408;SDS011;7289;50.706;4.992;2022-12-18T06:06:39;1.00;;;1.00;;
14408;SDS011;7289;50.706;4.992;2022-12-18T06:09:08;0.80;;;0.80;;
14408;SDS011;7289;50.706;4.992;2022-12-18T06:11:37;0.80;;;0.80;;
14408;SDS011;7289;50.706;4.992;2022-12-18T06:14:06;1.00;;;1.00;;
14408;SDS011;7289;50.706;4.992;2022-12-18T06:16:37;0.60;;;0.60;;
14408;SDS011;7289;50.706;4.992;2022-12-18T06:19:05;0.70;;;0.70;;
14408;SDS011;7289;50.706;4.992;2022-12-18T06:21:33;0.90;;;0.90;;
14408;SDS011;7289;50.706;4.992;2022-12-18T06:24:02;0.70;;;0.70;;
14408;SDS011;7289;50.706;4.992;2022-12-18T06:26:30;0.70;;;0.70;;
14408;SDS011;7289;50.706;4.992;2022-12-18T06:29:00;0.90;;;0.90;;
14408;SDS011;7289;50.706;4.992;2022-12-18T06:31:28;0.73;;;0.73;;
14408;SDS011;7289;50.706;4.992;2022-12-18T06:33:56;0.90;;;0.90;;
14408;SDS011;7289;50.706;4.992;2022-12-18T06:36:24;0.60;;;0.60;;
14408;SDS011;7289;50.706;4.992;2022-12-18T06:38:53;0.70;;;0.70;;
14408;SDS011;7289;50.706;4.992;2022-12-18T06:41:21;0.70;;;0.70;;
14408;SDS011;7289;50.706;4.992;2022-12-18T06:43:49;0.70;;;0.70;;
14408;SDS011;7289;50.706;4.992;2022-12-18T06:46:25;0.77;;;0.77;;
14408;SDS011;7289;50.706;4.992;2022-12-18T06:48:53;0.80;;;0.80;;
14408;SDS011;7289;50.706;4.992;2022-12-18T06:51:22;0.97;;;0.97;;
14408;SDS011;7289;50.706;4.992;2022-12-18T06:53:51;0.70;;;0.70;;
14408;SDS011;7289;50.706;4.992;2022-12-18T06:56:19;0.53;;;0.53;;
14408;SDS011;7289;50.706;4.992;2022-12-18T06:58:47;0.93;;;0.93;;
14408;SDS011;7289;50.706;4.992;2022-12-18T07:01:15;0.80;;;0.80;;
14408;SDS011;7289;50.706;4.992;2022-12-18T07:03:45;0.93;;;0.93;;
14408;SDS011;7289;50.706;4.992;2022-12-18T07:06:14;0.70;;;0.70;;
14408;SDS011;7289;50.706;4.992;2022-12-18T07:08:44;0.70;;;0.70;;
14408;SDS011;7289;50.706;4.992;2022-12-18T07:11:12;0.70;;;0.70;;
14408;SDS011;7289;50.706;4.992;2022-12-18T07:13:41;0.80;;;0.80;;
14408;SDS011;7289;50.706;4.992;2022-12-18T07:16:11;0.93;;;0.93;;
14408;SDS011;7289;50.706;4.992;2022-12-18T07:18:51;0.80;;;0.80;;
14408;SDS011;7289;50.706;4.992;2022-12-18T07:21:19;0.80;;;0.80;;
14408;SDS011;7289;50.706;4.992;2022-12-18T07:23:48;0.90;;;0.90;;
14408;SDS011;7289;50.706;4.992;2022-12-18T07:26:17;0.70;;;0.70;;
14408;SDS011;7289;50.706;4.992;2022-12-18T07:28:46;0.70;;;0.70;;
14408;SDS011;7289;50.706;4.992;2022-12-18T07:31:16;1.07;;;1.07;;
14408;SDS011;7289;50.706;4.992;2022-12-18T07:33:47;0.80;;;0.80;;
14408;SDS011;7289;50.706;4.992;2022-12-18T07:36:17;0.80;;;0.80;;
14408;SDS011;7289;50.706;4.992;2022-12-18T07:38:46;1.00;;;1.00;;
14408;SDS011;7289;50.706;4.992;2022-12-18T07:41:15;0.90;;;0.90;;
14408;SDS011;7289;50.706;4.992;2022-12-18T07:43:45;0.90;;;0.90;;
14408;SDS011;7289;50.706;4.992;2022-12-18T07:46:14;0.70;;;0.70;;
14408;SDS011;7289;50.706;4.992;2022-12-18T07:48:43;0.70;;;0.70;;
14408;SDS011;7289;50.706;4.992;2022-12-18T07:51:15;0.80;;;0.80;;
14408;SDS011;7289;50.706;4.992;2022-12-18T07:53:45;0.60;;;0.60;;
14408;SDS011;7289;50.706;4.992;2022-12-18T07:56:18;0.90;;;0.90;;
14408;SDS011;7289;50.706;4.992;2022-12-18T07:58:56;0.70;;;0.70;;
14408;SDS011;7289;50.706;4.992;2022-12-18T08:01:24;0.60;;;0.60;;
14408;SDS011;7289;50.706;4.992;2022-12-18T08:03:53;0.80;;;0.80;;
14408;SDS011;7289;50.706;4.992;2022-12-18T08:06:23;0.70;;;0.70;;
14408;SDS011;7289;50.706;4.992;2022-12-18T08:08:51;0.70;;;0.70;;
14408;SDS011;7289;50.706;4.992;2022-12-18T08:11:21;0.70;;;0.70;;
14408;SDS011;7289;50.706;4.992;2022-12-18T08:13:50;1.00;;;1.00;;
14408;SDS011;7289;50.706;4.992;2022-12-18T08:16:18;0.70;;;0.70;;
14408;SDS011;7289;50.706;4.992;2022-12-18T08:18:47;0.70;;;0.70;;
14408;SDS011;7289;50.706;4.992;2022-12-18T08:21:16;0.60;;;0.60;;
14408;SDS011;7289;50.706;4.992;2022-12-18T08:23:49;0.93;;;0.93;;
14408;SDS011;7289;50.706;4.992;2022-12-18T08:26:18;0.80;;;0.80;;
14408;SDS011;7289;50.706;4.992;2022-12-18T08:28:47;0.60;;;0.60;;
14408;SDS011;7289;50.706;4.992;2022-12-18T08:31:16;0.70;;;0.70;;
14408;SDS011;7289;50.706;4.992;2022-12-18T08:33:45;0.70;;;0.70;;
14408;SDS011;7289;50.706;4.992;2022-12-18T08:36:15;0.70;;;0.70;;
14408;SDS011;7289;50.706;4.992;2022-12-18T08:38:44;1.00;;;1.00;;
14408;SDS011;7289;50.706;4.992;2022-12-18T08:41:14;0.90;;;0.90;;
14408;SDS011;7289;50.706;4.992;2022-12-18T08:43:44;0.60;;;0.60;;
14408;SDS011;7289;50.706;4.992;2022-12-18T08:46:32;0.80;;;0.80;;
14408;SDS011;7289;50.706;4.992;2022-12-18T08:49:02;0.60;;;0.60;;
14408;SDS011;7289;50.706;4.992;2022-12-18T08:51:31;0.60;;;0.60;;
14408;SDS011;7289;50.706;4.992;2022-12-18T08:54:00;0.90;;;0.90;;
14408;SDS011;7289;50.706;4.992;2022-12-18T08:56:31;0.70;;;0.70;;
14408;SDS011;7289;50.706;4.992;2022-12-18T08:59:00;0.60;;;0.60;;
14408;SDS011;7289;50.706;4.992;2022-12-18T09:01:29;0.90;;;0.90;;
14408;SDS011;7289;50.706;4.992;2022-12-18T09:03:59;0.67;;;0.67;;
14408;SDS011;7289;50.706;4.992;2022-12-18T09:06:27;0.90;;;0.90;;
14408;SDS011;7289;50.706;4.992;2022-12-18T09:08:56;0.50;;;0.50;;
14408;SDS011;7289;50.706;4.992;2022-12-18T09:11:26;0.50;;;0.50;;
14408;SDS011;7289;50.706;4.992;2022-12-18T09:13:57;0.50;;;0.50;;
14408;SDS011;7289;50.706;4.992;2022-12-18T09:16:26;0.50;;;0.50;;
14408;SDS011;7289;50.706;4.992;2022-12-18T09:18:58;0.50;;;0.50;;
14408;SDS011;7289;50.706;4.992;2022-12-18T09:21:27;0.60;;;0.60;;
14408;SDS011;7289;50.706;4.992;2022-12-18T09:24:00;0.60;;;0.60;;
14408;SDS011;7289;50.706;4.992;2022-12-18T09:26:29;0.60;;;0.60;;
14408;SDS011;7289;50.706;4.992;2022-12-18T09:28:58;0.50;;;0.50;;
14408;SDS011;7289;50.706;4.992;2022-12-18T09:31:26;0.50;;;0.50;;
14408;SDS011;7289;50.706;4.992;2022-12-18T09:33:55;0.50;;;0.50;;
14408;SDS011;7289;50.706;4.992;2022-12-18T09:36:23;0.50;;;0.50;;
14408;SDS011;7289;50.706;4.992;2022-12-18T09:38:51;0.50;;;0.50;;
14408;SDS011;7289;50.706;4.992;2022-12-18T09:44:16;0.70;;;0.70;;
14408;SDS011;7289;50.706;4.992;2022-12-18T09:46:51;0.50;;;0.50;;
14408;SDS011;7289;50.706;4.992;2022-12-18T09:49:26;0.50;;;0.50;;
14408;SDS011;7289;50.706;4.992;2022-12-18T09:51:57;0.50;;;0.50;;
14408;SDS011;7289;50.706;4.992;2022-12-18T09:54:32;0.50;;;0.50;;
14408;SDS011;7289;50.706;4.992;2022-12-18T09:57:03;0.50;;;0.50;;
14408;SDS011;7289;50.706;4.992;2022-12-18T09:59:33;0.63;;;0.63;;
14408;SDS011;7289;50.706;4.992;2022-12-18T10:02:14;0.50;;;0.50;;
14408;SDS011;7289;50.706;4.992;2022-12-18T10:04:44;0.50;;;0.50;;
14408;SDS011;7289;50.706;4.992;2022-12-18T10:07:20;0.40;;;0.40;;
14408;SDS011;7289;50.706;4.992;2022-12-18T10:09:56;0.60;;;0.60;;
14408;SDS011;7289;50.706;4.992;2022-12-18T10:12:31;0.30;;;0.30;;
14408;SDS011;7289;50.706;4.992;2022-12-18T10:15:06;0.40;;;0.40;;
14408;SDS011;7289;50.706;4.992;2022-12-18T10:17:41;0.40;;;0.40;;
14408;SDS011;7289;50.706;4.992;2022-12-18T10:20:16;0.30;;;0.30;;
14408;SDS011;7289;50.706;4.992;2022-12-18T10:22:53;0.50;;;0.50;;
14408;SDS011;7289;50.706;4.992;2022-12-18T10:25:27;0.40;;;0.40;;
14408;SDS011;7289;50.706;4.992;2022-12-18T10:28:07;0.40;;;0.40;;
14408;SDS011;7289;50.706;4.992;2022-12-18T10:30:39;0.40;;;0.40;;
14408;SDS011;7289;50.706;4.992;2022-12-18T10:33:10;0.40;;;0.40;;
14408;SDS011;7289;50.706;4.992;2022-12-18T10:35:41;0.40;;;0.40;;
14408;SDS011;7289;50.706;4.992;2022-12-18T10:38:20;0.40;;;0.40;;
14408;SDS011;7289;50.706;4.992;2022-12-18T10:40:51;0.40;;;0.40;;
14408;SDS011;7289;50.706;4.992;2022-12-18T10:43:23;0.40;;;0.40;;
14408;SDS011;7289;50.706;4.992;2022-12-18T10:45:59;0.30;;;0.30;;
14408;SDS011;7289;50.706;4.992;2022-12-18T10:48:30;0.40;;;0.40;;
14408;SDS011;7289;50.706;4.992;2022-12-18T10:50:59;0.30;;;0.30;;
14408;SDS011;7289;50.706;4.992;2022-12-18T10:53:38;0.40;;;0.40;;
14408;SDS011;7289;50.706;4.992;2022-12-18T10:56:09;0.40;;;0.40;;
14408;SDS011;7289;50.706;4.992;2022-12-18T10:58:38;0.30;;;0.30;;
14408;SDS011;7289;50.706;4.992;2022-12-18T11:01:10;0.40;;;0.40;;
14408;SDS011;7289;50.706;4.992;2022-12-18T11:03:40;0.40;;;0.40;;
14408;SDS011;7289;50.706;4.992;2022-12-18T11:06:11;0.40;;;0.40;;
14408;SDS011;7289;50.706;4.992;2022-12-18T11:08:41;0.40;;;0.40;;
14408;SDS011;7289;50.706;4.992;2022-12-18T11:11:19;0.30;;;0.30;;
14408;SDS011;7289;50.706;4.992;2022-12-18T11:13:51;0.30;;;0.30;;
14408;SDS011;7289;50.706;4.992;2022-12-18T11:16:28;0.30;;;0.30;;
14408;SDS011;7289;50.706;4.992;2022-12-18T11:19:12;0.40;;;0.40;;
14408;SDS011;7289;50.706;4.992;2022-12-18T11:21:50;0.30;;;0.30;;
14408;SDS011;7289;50.706;4.992;2022-12-18T11:24:20;0.40;;;0.40;;
14408;SDS011;7289;50.706;4.992;2022-12-18T11:26:54;0.40;;;0.40;;
14408;SDS011;7289;50.706;4.992;2022-12-18T11:29:28;0.30;;;0.30;;
14408;SDS011;7289;50.706;4.992;2022-12-18T11:32:19;0.40;;;0.40;;
14408;SDS011;7289;50.706;4.992;2022-12-18T11:34:59;0.40;;;0.40;;
14408;SDS011;7289;50.706;4.992;2022-12-18T11:37:31;0.40;;;0.40;;
14408;SDS011;7289;50.706;4.992;2022-12-18T11:40:02;0.40;;;0.40;;
14408;SDS011;7289;50.706;4.992;2022-12-18T11:42:35;0.40;;;0.40;;
14408;SDS011;7289;50.706;4.992;2022-12-18T11:45:18;0.40;;;0.40;;
14408;SDS011;7289;50.706;4.992;2022-12-18T11:47:54;0.40;;;0.40;;
14408;SDS011;7289;50.706;4.992;2022-12-18T11:50:41;0.30;;;0.30;;
14408;SDS011;7289;50.706;4.992;2022-12-18T11:53:16;0.30;;;0.30;;
14408;SDS011;7289;50.706;4.992;2022-12-18T11:55:47;0.30;;;0.30;;
14408;SDS011;7289;50.706;4.992;2022-12-18T11:58:26;0.40;;;0.40;;
14408;SDS011;7289;50.706;4.992;2022-12-18T12:01:05;0.37;;;0.37;;
14408;SDS011;7289;50.706;4.992;2022-12-18T12:03:47;0.30;;;0.30;;
14408;SDS011;7289;50.706;4.992;2022-12-18T12:06:45;0.30;;;0.30;;
14408;SDS011;7289;50.706;4.992;2022-12-18T12:09:30;0.30;;;0.30;;
14408;SDS011;7289;50.706;4.992;2022-12-18T12:12:13;0.40;;;0.40;;
14408;SDS011;7289;50.706;4.992;2022-12-18T12:14:55;0.30;;;0.30;;
14408;SDS011;7289;50.706;4.992;2022-12-18T12:17:33;0.30;;;0.30;;
14408;SDS011;7289;50.706;4.992;2022-12-18T12:20:08;0.37;;;0.37;;
14408;SDS011;7289;50.706;4.992;2022-12-18T12:22:44;0.30;;;0.30;;
14408;SDS011;7289;50.706;4.992;2022-12-18T12:25:20;0.30;;;0.30;;
14408;SDS011;7289;50.706;4.992;2022-12-18T12:27:58;0.30;;;0.30;;
14408;SDS011;7289;50.706;4.992;2022-12-18T12:30:39;0.30;;;0.30;;
14408;SDS011;7289;50.706;4.992;2022-12-18T12:33:22;0.30;;;0.30;;
14408;SDS011;7289;50.706;4.992;2022-12-18T12:36:00;0.30;;;0.30;;
14408;SDS011;7289;50.706;4.992;2022-12-18T12:38:35;0.30;;;0.30;;
14408;SDS011;7289;50.706;4.992;2022-12-18T12:41:17;0.30;;;0.30;;
14408;SDS011;7289;50.706;4.992;2022-12-18T12:44:07;0.30;;;0.30;;
14408;SDS011;7289;50.706;4.992;2022-12-18T12:46:41;0.30;;;0.30;;
14408;SDS011;7289;50.706;4.992;2022-12-18T12:49:12;0.30;;;0.30;;
14408;SDS011;7289;50.706;4.992;2022-12-18T12:51:45;0.30;;;0.30;;
14408;SDS011;7289;50.706;4.992;2022-12-18T12:54:22;0.30;;;0.30;;
14408;SDS011;7289;50.706;4.992;2022-12-18T12:56:54;0.30;;;0.30;;
14408;SDS011;7289;50.706;4.992;2022-12-18T12:59:29;0.30;;;0.30;;
14408;SDS011;7289;50.706;4.992;2022-12-18T13:02:05;0.20;;;0.20;;
14408;SDS011;7289;50.706;4.992;2022-12-18T13:04:45;0.30;;;0.30;;
14408;SDS011;7289;50.706;4.992;2022-12-18T13:07:19;0.30;;;0.30;;
14408;SDS011;7289;50.706;4.992;2022-12-18T13:12:53;0.30;;;0.30;;
14408;SDS011;7289;50.706;4.992;2022-12-18T13:15:25;0.30;;;0.30;;
14408;SDS011;7289;50.706;4.992;2022-12-18T13:18:11;0.30;;;0.30;;
14408;SDS011;7289;50.706;4.992;2022-12-18T13:20:47;0.27;;;0.27;;
14408;SDS011;7289;50.706;4.992;2022-12-18T13:23:29;0.30;;;0.30;;
14408;SDS011;7289;50.706;4.992;2022-12-18T13:26:28;0.40;;;0.40;;
14408;SDS011;7289;50.706;4.992;2022-12-18T13:28:59;0.30;;;0.30;;
14408;SDS011;7289;50.706;4.992;2022-12-18T13:34:35;0.33;;;0.33;;
14408;SDS011;7289;50.706;4.992;2022-12-18T13:43:30;0.30;;;0.30;;
14408;SDS011;7289;50.706;4.992;2022-12-18T13:46:20;0.30;;;0.30;;
14408;SDS011;7289;50.706;4.992;2022-12-18T13:48:51;0.30;;;0.30;;
14408;SDS011;7289;50.706;4.992;2022-12-18T13:51:22;0.30;;;0.30;;
14408;SDS011;7289;50.706;4.992;2022-12-18T13:53:53;0.30;;;0.30;;
14408;SDS011;7289;50.706;4.992;2022-12-18T13:56:24;0.30;;;0.30;;
14408;SDS011;7289;50.706;4.992;2022-12-18T14:01:50;0.30;;;0.30;;
14408;SDS011;7289;50.706;4.992;2022-12-18T14:04:26;0.30;;;0.30;;
14408;SDS011;7289;50.706;4.992;2022-12-18T14:06:56;0.20;;;0.20;;
14408;SDS011;7289;50.706;4.992;2022-12-18T14:09:29;0.30;;;0.30;;
14408;SDS011;7289;50.706;4.992;2022-12-18T14:12:03;0.30;;;0.30;;
14408;SDS011;7289;50.706;4.992;2022-12-18T14:14:51;0.30;;;0.30;;
14408;SDS011;7289;50.706;4.992;2022-12-18T14:17:21;0.30;;;0.30;;
14408;SDS011;7289;50.706;4.992;2022-12-18T14:19:51;0.30;;;0.30;;
14408;SDS011;7289;50.706;4.992;2022-12-18T14:22:20;0.30;;;0.30;;
14408;SDS011;7289;50.706;4.992;2022-12-18T14:25:05;0.20;;;0.20;;
14408;SDS011;7289;50.706;4.992;2022-12-18T14:27:42;0.30;;;0.30;;
14408;SDS011;7289;50.706;4.992;2022-12-18T14:33:05;0.30;;;0.30;;
14408;SDS011;7289;50.706;4.992;2022-12-18T14:35:38;0.30;;;0.30;;
14408;SDS011;7289;50.706;4.992;2022-12-18T14:38:18;0.30;;;0.30;;
14408;SDS011;7289;50.706;4.992;2022-12-18T14:40:51;0.30;;;0.30;;
14408;SDS011;7289;50.706;4.992;2022-12-18T14:43:21;0.30;;;0.30;;
14408;SDS011;7289;50.706;4.992;2022-12-18T14:45:51;0.30;;;0.30;;
14408;SDS011;7289;50.706;4.992;2022-12-18T14:48:20;0.30;;;0.30;;
14408;SDS011;7289;50.706;4.992;2022-12-18T14:50:56;0.30;;;0.30;;
14408;SDS011;7289;50.706;4.992;2022-12-18T14:53:37;0.30;;;0.30;;
14408;SDS011;7289;50.706;4.992;2022-12-18T14:56:16;0.30;;;0.30;;
14408;SDS011;7289;50.706;4.992;2022-12-18T14:58:47;0.30;;;0.30;;
14408;SDS011;7289;50.706;4.992;2022-12-18T15:01:22;0.30;;;0.30;;
14408;SDS011;7289;50.706;4.992;2022-12-18T15:03:53;0.30;;;0.30;;
14408;SDS011;7289;50.706;4.992;2022-12-18T15:06:31;0.30;;;0.30;;
14408;SDS011;7289;50.706;4.992;2022-12-18T15:09:02;0.30;;;0.30;;
14408;SDS011;7289;50.706;4.992;2022-12-18T15:11:34;0.30;;;0.30;;
14408;SDS011;7289;50.706;4.992;2022-12-18T15:14:28;0.30;;;0.30;;
14408;SDS011;7289;50.706;4.992;2022-12-18T15:17:01;0.30;;;0.30;;
14408;SDS011;7289;50.706;4.992;2022-12-18T15:19:33;0.30;;;0.30;;
14408;SDS011;7289;50.706;4.992;2022-12-18T15:22:11;0.30;;;0.30;;
14408;SDS011;7289;50.706;4.992;2022-12-18T15:24:47;0.30;;;0.30;;
14408;SDS011;7289;50.706;4.992;2022-12-18T15:27:21;0.30;;;0.30;;
14408;SDS011;7289;50.706;4.992;2022-12-18T15:32:49;0.30;;;0.30;;
14408;SDS011;7289;50.706;4.992;2022-12-18T15:35:19;0.30;;;0.30;;
14408;SDS011;7289;50.706;4.992;2022-12-18T15:37:49;0.30;;;0.30;;
14408;SDS011;7289;50.706;4.992;2022-12-18T15:40:19;0.30;;;0.30;;
14408;SDS011;7289;50.706;4.992;2022-12-18T15:42:48;0.30;;;0.30;;
14408;SDS011;7289;50.706;4.992;2022-12-18T15:45:36;0.30;;;0.30;;
14408;SDS011;7289;50.706;4.992;2022-12-18T15:48:08;0.30;;;0.30;;
14408;SDS011;7289;50.706;4.992;2022-12-18T15:50:44;0.30;;;0.30;;
14408;SDS011;7289;50.706;4.992;2022-12-18T15:53:13;0.30;;;0.30;;
14408;SDS011;7289;50.706;4.992;2022-12-18T15:55:41;0.30;;;0.30;;
14408;SDS011;7289;50.706;4.992;2022-12-18T15:58:27;0.30;;;0.30;;
14408;SDS011;7289;50.706;4.992;2022-12-18T16:00:55;0.30;;;0.30;;
14408;SDS011;7289;50.706;4.992;2022-12-18T16:03:27;0.37;;;0.37;;